Terminal Aerodrome Forecast
Issued by NWS Tulsa, OK

Home | Current Version | Previous Version | Text Only | Print | Product List | Glossary On
Versions: 1 2 3 4 5 6 7 8 9 10 11 12 13 14 15 16 17 18 19 20
000
FTUS44 KTSA 222300
TAFFSM
TAF
KFSM 222339Z 2300/2324 27008KT P6SM SCT025 OVC040
     FM230600 29004KT P6SM SCT040 BKN120
     FM231500 30007KT P6SM SCT040 OVC100 PROB30 2318/2324 4SM -RA
      OVC040=

USA.gov is the U.S. government's official web portal to all federal, state and local government web resources and services.